Time;durP1;ratioP1;P1;durP2;ratioP2;P2;SDS_P1;SDS_P2;PMS_P1;PMS_P2;Temp;Humidity;BMP_temperature;BMP_pressure;BME280_temperature;BME280_humidity;BME280_pressure;Samples;Min_cycle;Max_cycle;Signal;HPM_P1;HPM_P2
2023/06/03 00:01:42;;;;;;;5.63;5.03;;;;;;;15.01;63.30;155217.13;5004822;28;21064;-81
2023/06/03 00:04:11;;;;;;;5.67;4.97;;;;;;;14.94;63.54;155197.66;5008564;28;20451;-80
2023/06/03 00:06:39;;;;;;;6.63;5.10;;;;;;;14.98;63.70;155209.38;5007796;28;20917;-80
2023/06/03 00:09:05;;;;;;;6.67;5.10;;;;;;;14.87;64.33;155179.47;5010562;28;20562;-80
2023/06/03 00:11:32;;;;;;;8.00;5.80;;;;;;;14.85;64.27;155175.53;4989002;28;20452;-80
2023/06/03 00:13:59;;;;;;;7.27;5.17;;;;;;;14.83;64.04;155169.06;4990795;28;20523;-80
2023/06/03 00:16:26;;;;;;;7.40;5.10;;;;;;;14.80;64.60;155161.31;4988403;28;20851;-80
2023/06/03 00:18:52;;;;;;;7.23;4.90;;;;;;;14.74;64.94;155145.69;4990476;28;20438;-80
2023/06/03 00:21:19;;;;;;;6.17;4.70;;;;;;;14.72;65.02;155140.50;4989441;28;20451;-80
2023/06/03 00:23:48;;;;;;;8.93;5.10;;;;;;;14.68;65.26;155130.09;5005281;28;20466;-80
2023/06/03 00:26:14;;;;;;;7.83;6.80;;;;;;;14.66;65.48;155126.22;4989102;28;20488;-80
2023/06/03 00:28:41;;;;;;;7.20;4.93;;;;;;;14.57;65.93;155104.13;4996739;28;20504;-80
2023/06/03 00:31:07;;;;;;;6.10;4.87;;;;;;;14.63;65.74;155118.41;5025193;28;20466;-80
2023/06/03 00:33:34;;;;;;;10.40;4.90;;;;;;;14.63;65.73;155119.72;5008900;28;20434;-80
2023/06/03 00:36:01;;;;;;;11.33;5.70;;;;;;;14.57;65.95;155104.13;5008637;28;20441;-80
2023/06/03 00:38:27;;;;;;;7.37;4.67;;;;;;;14.52;66.00;155091.16;5008896;28;21084;-80
2023/06/03 00:40:56;;;;;;;9.47;5.50;;;;;;;14.52;66.28;155089.84;4975995;28;20824;-80
2023/06/03 00:43:23;;;;;;;8.07;5.33;;;;;;;14.47;66.39;155078.16;5000011;28;20446;-80
2023/06/03 00:45:49;;;;;;;7.90;5.37;;;;;;;14.42;66.66;155063.88;4990313;28;20481;-80
2023/06/03 00:48:16;;;;;;;8.80;5.47;;;;;;;14.38;67.02;155054.75;5005560;28;20502;-80
2023/06/03 00:50:42;;;;;;;6.53;4.90;;;;;;;14.37;66.95;155052.19;4972284;28;21053;-81
2023/06/03 00:53:09;;;;;;;5.83;4.93;;;;;;;14.38;67.26;155053.47;4989138;28;20446;-80
2023/06/03 00:55:35;;;;;;;7.80;4.93;;;;;;;14.38;66.94;155054.75;4988800;28;20453;-80
2023/06/03 00:58:03;;;;;;;5.37;4.37;;;;;;;14.37;67.25;155052.19;4989188;28;20461;-80
2023/06/03 01:00:30;;;;;;;6.17;4.93;;;;;;;14.31;67.27;155036.59;5000004;28;21061;-80
2023/06/03 01:02:57;;;;;;;8.13;5.30;;;;;;;14.27;67.68;155024.88;5008324;28;20449;-80
2023/06/03 01:05:23;;;;;;;6.73;4.80;;;;;;;14.25;67.60;155020.94;4991457;28;20523;-80
2023/06/03 01:08:00;;;;;;;9.97;5.20;;;;;;;14.15;68.05;154993.69;5024350;28;20938;-81
2023/06/03 01:10:33;;;;;;;8.03;5.03;;;;;;;14.11;68.40;154984.59;5007822;28;20475;-80
2023/06/03 01:13:05;;;;;;;10.27;5.10;;;;;;;14.18;68.23;155001.50;4974995;28;20437;-80
2023/06/03 01:15:33;;;;;;;7.90;4.87;;;;;;;14.09;68.61;154979.41;5023662;28;20413;-80
2023/06/03 01:18:01;;;;;;;6.30;4.83;;;;;;;14.11;68.35;154984.59;5006215;28;20459;-80
2023/06/03 01:20:28;;;;;;;7.97;5.50;;;;;;;14.10;68.73;154980.72;5007497;28;20434;-80
2023/06/03 01:23:03;;;;;;;5.60;4.70;;;;;;;14.05;68.68;154969.03;5007363;28;20461;-81
2023/06/03 01:25:31;;;;;;;7.20;5.37;;;;;;;14.01;69.01;154958.63;5007058;28;20472;-80
2023/06/03 01:27:58;;;;;;;6.73;4.60;;;;;;;14.00;69.12;154956.06;5008053;28;20441;-82
2023/06/03 01:30:25;;;;;;;8.20;4.87;;;;;;;13.96;69.09;154945.66;5000024;28;20497;-82
2023/06/03 01:32:52;;;;;;;7.97;4.70;;;;;;;13.89;69.73;154927.50;5004778;28;20438;-80
2023/06/03 01:35:19;;;;;;;8.83;5.53;;;;;;;13.84;69.88;154914.50;4991132;28;20452;-81
2023/06/03 01:37:46;;;;;;;8.93;4.53;;;;;;;13.83;70.01;154913.22;4987693;28;20453;-81
2023/06/03 01:40:13;;;;;;;6.80;4.40;;;;;;;13.87;69.92;154923.56;4990457;28;20442;-81
2023/06/03 01:42:41;;;;;;;5.00;4.50;;;;;;;13.86;69.88;154919.69;4988575;28;20456;-81
2023/06/03 01:45:08;;;;;;;10.50;5.40;;;;;;;13.88;69.72;154924.88;4971724;28;20912;-81
2023/06/03 01:47:35;;;;;;;8.63;4.50;;;;;;;13.84;70.08;154914.50;4986861;28;20507;-81
2023/06/03 01:50:01;;;;;;;9.97;5.47;;;;;;;13.76;70.55;154895.06;4987544;28;20642;-81
2023/06/03 01:52:29;;;;;;;7.33;4.80;;;;;;;13.72;70.86;154883.34;4972131;28;20458;-81
2023/06/03 01:54:56;;;;;;;5.13;4.03;;;;;;;13.72;70.60;154884.63;4987201;28;20532;-81
2023/06/03 01:57:23;;;;;;;6.87;5.00;;;;;;;13.70;70.84;154879.47;4988378;28;20450;-81
2023/06/03 01:59:52;;;;;;;6.43;4.90;;;;;;;13.64;71.12;154863.88;5009038;28;20453;-81
2023/06/03 02:02:18;;;;;;;9.20;4.80;;;;;;;13.63;71.30;154860.00;5023622;28;20449;-81
2023/06/03 02:04:45;;;;;;;6.37;4.53;;;;;;;13.64;71.32;154863.88;5008890;28;20868;-81
2023/06/03 02:07:13;;;;;;;7.10;4.13;;;;;;;13.59;71.72;154850.91;5008042;28;20541;-81
2023/06/03 02:09:41;;;;;;;4.97;4.20;;;;;;;13.53;71.75;154834.06;5004177;28;20840;-81
2023/06/03 02:12:09;;;;;;;6.10;4.50;;;;;;;13.45;72.52;154814.53;4972312;28;20451;-81
2023/06/03 02:14:37;;;;;;;6.20;4.93;;;;;;;13.48;72.29;154821.03;4988462;28;20456;-81
2023/06/03 02:17:05;;;;;;;5.47;4.67;;;;;;;13.53;72.29;154834.06;4971695;28;20597;-81
2023/06/03 02:19:31;;;;;;;8.97;5.00;;;;;;;13.53;71.89;154835.31;4988575;28;20449;-81
2023/06/03 02:21:59;;;;;;;11.43;5.90;;;;;;;13.52;72.20;154832.75;5004946;28;20899;-81
2023/06/03 02:24:28;;;;;;;7.93;5.03;;;;;;;13.48;72.30;154821.03;4990679;28;20495;-81
2023/06/03 02:27:00;;;;;;;7.27;4.90;;;;;;;13.48;72.30;154821.03;5006485;28;20483;-81
2023/06/03 02:29:27;;;;;;;8.83;5.10;;;;;;;13.46;72.50;154815.84;4985320;28;20433;-81
2023/06/03 02:31:57;;;;;;;6.53;5.20;;;;;;;13.44;72.69;154811.97;5008085;28;20437;-81
2023/06/03 02:34:25;;;;;;;6.30;4.60;;;;;;;13.41;72.79;154805.50;5006803;28;20443;-81
2023/06/03 02:36:52;;;;;;;10.67;6.40;;;;;;;13.38;72.88;154797.69;5006419;28;20813;-80
2023/06/03 02:39:19;;;;;;;5.80;4.90;;;;;;;13.34;73.32;154787.28;4974187;28;20441;-81
2023/06/03 02:41:47;;;;;;;7.17;4.83;;;;;;;13.26;73.44;154766.53;4990171;28;20463;-80
2023/06/03 02:44:15;;;;;;;8.03;4.80;;;;;;;13.21;73.70;154752.31;4974194;28;20446;-81
2023/06/03 02:46:42;;;;;;;7.57;5.37;;;;;;;13.24;73.77;154761.34;5009427;28;20480;-81
2023/06/03 02:49:10;;;;;;;9.73;4.90;;;;;;;13.19;73.81;154747.06;5010203;28;20455;-81
2023/06/03 02:51:39;;;;;;;7.43;4.80;;;;;;;13.15;73.93;154738.03;4993587;28;20456;-80
2023/06/03 02:54:05;;;;;;;8.93;5.67;;;;;;;13.19;74.08;154747.06;5004854;28;20440;-81
2023/06/03 02:56:32;;;;;;;7.13;4.90;;;;;;;13.22;74.07;154754.88;5030803;28;20506;-81
2023/06/03 02:58:58;;;;;;;6.23;5.20;;;;;;;13.25;73.96;154763.97;5023013;28;20453;-80
2023/06/03 03:01:27;;;;;;;7.87;5.00;;;;;;;13.26;73.87;154765.28;5009715;28;20875;-81
2023/06/03 03:03:54;;;;;;;6.30;5.67;;;;;;;13.20;74.22;154751.00;5009413;28;20436;-81
2023/06/03 03:06:21;;;;;;;5.37;4.63;;;;;;;13.20;73.90;154749.69;4993272;28;20481;-81
2023/06/03 03:08:50;;;;;;;8.00;4.90;;;;;;;13.25;73.84;154763.97;5009323;28;20534;-81
2023/06/03 03:11:18;;;;;;;8.80;5.27;;;;;;;13.22;74.14;154756.19;5009779;28;20468;-81
2023/06/03 03:13:45;;;;;;;9.40;4.93;;;;;;;13.16;74.26;154740.59;5025956;28;20535;-80
2023/06/03 03:16:14;;;;;;;10.87;5.63;;;;;;;13.17;74.44;154743.22;5008450;28;20448;-81
2023/06/03 03:18:42;;;;;;;7.83;5.43;;;;;;;13.13;74.41;154732.78;4976797;28;20498;-80
2023/06/03 03:21:10;;;;;;;8.60;4.87;;;;;;;13.11;74.58;154727.63;4993344;28;20920;-81
2023/06/03 03:23:37;;;;;;;7.20;4.83;;;;;;;13.09;74.56;154722.44;4993237;28;20532;-81
2023/06/03 03:26:08;;;;;;;8.73;5.53;;;;;;;13.14;74.73;154735.41;5009037;28;20476;-81
2023/06/03 03:28:35;;;;;;;9.97;6.00;;;;;;;13.11;74.80;154727.63;5009048;28;20448;-80
2023/06/03 03:31:04;;;;;;;6.77;5.23;;;;;;;13.09;74.70;154722.44;5008980;28;20459;-80
2023/06/03 03:33:32;;;;;;;9.10;5.07;;;;;;;13.06;75.21;154714.59;4982270;28;20527;-81
2023/06/03 03:36:08;;;;;;;6.33;4.80;;;;;;;13.02;75.38;154704.25;4973181;28;20442;-81
2023/06/03 03:38:37;;;;;;;8.30;5.33;;;;;;;13.03;75.18;154706.81;5005813;28;20435;-80
2023/06/03 03:41:06;;;;;;;9.10;4.40;;;;;;;13.02;75.47;154704.25;4972973;28;20515;-81
2023/06/03 03:43:35;;;;;;;5.80;5.00;;;;;;;13.03;75.61;154705.50;4989206;28;20963;-81
2023/06/03 03:46:09;;;;;;;8.20;5.23;;;;;;;12.97;75.58;154691.28;5005205;28;20493;-82
2023/06/03 03:48:35;;;;;;;6.83;4.50;;;;;;;13.02;75.64;154702.94;4989321;28;20429;-81
2023/06/03 03:51:02;;;;;;;6.77;4.80;;;;;;;13.01;75.31;154700.31;4973667;28;20550;-81
2023/06/03 03:53:36;;;;;;;9.73;5.20;;;;;;;13.05;75.35;154712.00;5000461;28;20846;-81
2023/06/03 03:56:08;;;;;;;6.70;4.73;;;;;;;13.06;75.59;154713.28;5028305;28;20450;-81
2023/06/03 03:58:46;;;;;;;6.47;4.53;;;;;;;13.08;75.49;154719.81;4995837;28;20483;-81
2023/06/03 04:01:22;;;;;;;9.13;5.43;;;;;;;13.07;75.76;154715.97;5021840;28;20776;-81
2023/06/03 04:03:50;;;;;;;6.93;5.73;;;;;;;13.11;75.08;154727.63;4981123;28;20444;-81
2023/06/03 04:06:29;;;;;;;6.43;5.17;;;;;;;13.14;75.31;154735.41;5007499;28;20473;-81
2023/06/03 04:08:57;;;;;;;7.20;5.00;;;;;;;13.22;75.06;154756.19;5008629;28;20416;-80
2023/06/03 04:11:27;;;;;;;6.37;5.70;;;;;;;13.26;74.96;154766.53;5008321;28;20466;-81
2023/06/03 04:13:54;;;;;;;9.27;5.33;;;;;;;13.34;74.73;154787.28;4992293;28;20498;-80
2023/06/03 04:16:51;;;;;;;7.63;5.73;;;;;;;13.50;74.25;154827.56;4992021;28;20542;-80
2023/06/03 04:19:27;;;;;;;9.07;5.83;;;;;;;13.65;73.35;154865.19;4975668;28;20514;-80
2023/06/03 04:21:54;;;;;;;8.37;4.73;;;;;;;13.67;73.07;154870.34;5008269;28;20449;-80
2023/06/03 04:24:21;;;;;;;5.67;4.93;;;;;;;13.74;72.99;154888.56;5007274;28;20433;-80
2023/06/03 04:26:49;;;;;;;9.73;5.33;;;;;;;13.80;72.59;154904.09;4991532;28;20917;-80
2023/06/03 04:29:16;;;;;;;6.10;5.30;;;;;;;13.91;72.24;154932.66;5007138;28;20842;-80
2023/06/03 04:31:42;;;;;;;11.40;5.40;;;;;;;14.01;71.64;154959.94;5008103;28;21108;-80
2023/06/03 04:34:09;;;;;;;10.13;5.23;;;;;;;14.07;71.26;154972.91;5010916;28;20446;-80
2023/06/03 04:36:36;;;;;;;5.80;4.67;;;;;;;14.15;71.09;154995.00;4988158;28;20437;-80
2023/06/03 04:39:05;;;;;;;8.97;5.20;;;;;;;14.26;71.36;155022.25;4988325;28;20450;-80
2023/06/03 04:41:33;;;;;;;8.80;5.70;;;;;;;14.43;70.77;155067.75;4999673;28;20906;-80
2023/06/03 04:44:02;;;;;;;7.00;5.20;;;;;;;14.61;69.99;155114.50;4975283;28;20532;-81
2023/06/03 04:46:31;;;;;;;7.00;5.00;;;;;;;14.71;68.99;155139.22;4991773;28;20541;-81
2023/06/03 04:49:01;;;;;;;7.33;5.93;;;;;;;14.77;68.74;155153.50;4975784;28;20448;-80
2023/06/03 04:51:29;;;;;;;6.20;4.63;;;;;;;14.81;68.68;155163.88;5009922;28;20441;-80
2023/06/03 04:53:56;;;;;;;7.10;5.67;;;;;;;14.79;68.01;155158.69;4983237;28;20442;-81
2023/06/03 04:56:24;;;;;;;7.83;5.97;;;;;;;14.81;68.12;155163.88;4988046;28;20469;-80
2023/06/03 04:58:54;;;;;;;12.20;4.87;;;;;;;14.93;68.43;155196.34;4981880;28;20455;-80
2023/06/03 05:01:25;;;;;;;5.63;5.10;;;;;;;15.04;67.39;155224.94;4990840;28;20684;-80
2023/06/03 05:03:51;;;;;;;7.93;5.60;;;;;;;15.06;67.58;155230.09;5007431;28;20766;-80
2023/06/03 05:06:19;;;;;;;9.20;5.33;;;;;;;15.16;67.08;155254.81;4990750;28;21014;-80
2023/06/03 05:08:47;;;;;;;5.70;5.03;;;;;;;15.22;66.50;155270.44;4991034;28;20501;-80
2023/06/03 05:11:15;;;;;;;6.53;4.20;;;;;;;15.33;67.49;155298.97;4991341;28;20894;-80
2023/06/03 05:13:42;;;;;;;5.90;4.83;;;;;;;15.26;66.52;155280.81;5007883;28;20456;-80
2023/06/03 05:16:09;;;;;;;10.70;6.30;;;;;;;15.37;66.18;155308.09;4974748;28;20541;-80
2023/06/03 05:18:38;;;;;;;10.00;5.87;;;;;;;15.37;66.83;155308.09;5009065;28;20552;-80
2023/06/03 05:21:06;;;;;;;9.60;4.87;;;;;;;15.45;66.49;155330.19;4976246;28;20439;-81
2023/06/03 05:23:32;;;;;;;9.63;5.33;;;;;;;15.52;66.30;155348.44;4991724;28;20489;-80
2023/06/03 05:25:59;;;;;;;5.70;5.00;;;;;;;15.67;65.29;155387.41;4990417;28;20461;-80
2023/06/03 05:28:26;;;;;;;7.70;5.67;;;;;;;15.81;65.24;155423.81;4977797;28;20477;-80
2023/06/03 05:30:54;;;;;;;7.00;5.00;;;;;;;15.96;64.81;155460.25;5006952;28;20448;-81
2023/06/03 05:33:26;;;;;;;8.80;5.53;;;;;;;16.05;63.93;155484.94;4990261;28;20439;-80
2023/06/03 05:35:55;;;;;;;6.83;5.40;;;;;;;16.08;64.04;155491.44;4990229;28;20826;-80
2023/06/03 05:38:22;;;;;;;9.83;4.83;;;;;;;16.04;64.35;155482.38;5007274;28;20521;-80
2023/06/03 05:40:50;;;;;;;8.87;5.60;;;;;;;16.20;64.43;155522.66;5023362;28;20459;-81
2023/06/03 05:43:16;;;;;;;7.10;5.40;;;;;;;16.34;64.30;155560.34;5008453;28;20959;-81
2023/06/03 05:45:44;;;;;;;6.87;4.83;;;;;;;16.42;63.53;155581.16;4990445;28;20510;-81
2023/06/03 05:48:11;;;;;;;7.30;6.00;;;;;;;16.63;63.72;155634.53;4990635;28;20468;-81
2023/06/03 05:50:40;;;;;;;11.20;5.67;;;;;;;16.74;62.05;155661.88;4971321;28;20453;-81
2023/06/03 05:53:08;;;;;;;10.77;5.67;;;;;;;16.85;61.88;155691.81;4989283;28;20438;-81
2023/06/03 05:55:34;;;;;;;8.20;5.80;;;;;;;17.10;61.58;155755.56;4990642;28;20445;-81
2023/06/03 05:58:01;;;;;;;5.93;5.20;;;;;;;17.39;60.25;155829.75;4990791;28;20527;-81
2023/06/03 06:00:28;;;;;;;9.00;5.40;;;;;;;17.54;59.88;155868.84;5023322;28;20472;-81
2023/06/03 06:02:56;;;;;;;8.50;5.83;;;;;;;17.56;58.86;155874.03;5007050;28;20447;-81
2023/06/03 06:05:23;;;;;;;6.50;4.60;;;;;;;17.63;59.64;155893.53;4988170;28;20991;-81
2023/06/03 06:07:49;;;;;;;9.10;5.53;;;;;;;17.73;58.19;155917.00;4987447;28;20473;-81
2023/06/03 06:10:17;;;;;;;7.00;5.50;;;;;;;17.76;58.61;155924.81;5000234;28;20569;-82
2023/06/03 06:12:44;;;;;;;6.50;5.80;;;;;;;17.75;57.63;155923.50;4968746;28;20457;-81
2023/06/03 06:15:11;;;;;;;7.07;5.07;;;;;;;17.83;58.12;155944.34;4967966;28;20473;-81
2023/06/03 06:17:38;;;;;;;8.00;5.87;;;;;;;17.84;58.72;155946.97;4969185;28;20801;-81
2023/06/03 06:20:06;;;;;;;7.60;5.80;;;;;;;17.90;57.62;155961.25;4985208;28;20446;-81
2023/06/03 06:22:34;;;;;;;7.20;5.47;;;;;;;17.84;58.21;155946.97;4988401;28;20934;-81
2023/06/03 06:25:01;;;;;;;7.80;5.47;;;;;;;17.93;58.14;155969.06;4971697;28;20442;-81
2023/06/03 06:27:30;;;;;;;6.80;5.63;;;;;;;18.22;57.31;156044.59;4987259;28;20853;-82
2023/06/03 06:29:57;;;;;;;7.97;6.53;;;;;;;18.31;57.15;156068.06;5003169;28;20537;-82
2023/06/03 06:32:25;;;;;;;7.90;5.20;;;;;;;18.63;57.12;156150.16;5016522;28;20472;-82
2023/06/03 06:34:52;;;;;;;6.30;5.70;;;;;;;18.83;55.22;156202.25;4975491;28;20545;-81
2023/06/03 06:37:19;;;;;;;6.23;4.97;;;;;;;18.85;56.08;156207.47;4991840;28;20450;-81
2023/06/03 06:39:48;;;;;;;7.70;5.50;;;;;;;18.94;55.02;156230.94;4987114;28;20442;-81
2023/06/03 06:42:40;;;;;;;9.97;6.10;;;;;;;18.74;55.41;156178.84;4971698;28;20457;-81
2023/06/03 06:45:23;;;;;;;7.50;6.00;;;;;;;18.98;54.81;156241.38;4988315;28;20971;-82
2023/06/03 06:47:51;;;;;;;8.87;6.17;;;;;;;19.01;54.62;156249.16;4972271;28;20463;-82
2023/06/03 06:50:35;;;;;;;7.50;5.70;;;;;;;19.00;55.12;156246.59;4973421;28;20488;-81
2023/06/03 06:53:04;;;;;;;7.30;5.77;;;;;;;19.14;54.55;156283.03;4971359;28;20436;-81
2023/06/03 06:55:41;;;;;;;11.17;6.57;;;;;;;19.16;54.32;156286.97;4987738;28;20468;-81
2023/06/03 06:58:10;;;;;;;6.30;5.67;;;;;;;19.31;54.20;156327.38;5009822;28;20478;-81
2023/06/03 07:00:37;;;;;;;10.20;5.63;;;;;;;19.52;53.14;156379.53;4992326;28;20440;-82
2023/06/03 07:03:06;;;;;;;8.80;8.00;;;;;;;19.60;53.33;156400.41;4982640;28;20455;-82
2023/06/03 07:05:32;;;;;;;6.73;6.03;;;;;;;19.72;53.18;156431.72;5006046;28;20437;-82
2023/06/03 07:07:59;;;;;;;10.07;5.67;;;;;;;19.84;52.94;156463.00;5007881;28;20474;-82
2023/06/03 07:10:25;;;;;;;8.23;5.97;;;;;;;20.03;53.57;156512.53;4995476;28;20465;-81
2023/06/03 07:12:53;;;;;;;8.10;6.27;;;;;;;20.48;51.47;156629.97;5009512;28;20448;-82
2023/06/03 07:15:21;;;;;;;10.30;6.00;;;;;;;20.63;50.94;156669.09;4975741;28;20545;-82
2023/06/03 07:17:50;;;;;;;8.43;5.53;;;;;;;20.44;50.74;156619.53;5006324;28;20438;-82
2023/06/03 07:20:20;;;;;;;7.60;6.30;;;;;;;20.35;51.41;156596.06;5006657;28;20434;-82
2023/06/03 07:22:47;;;;;;;8.27;5.57;;;;;;;20.37;51.78;156601.28;5005936;28;20500;-82
2023/06/03 07:25:30;;;;;;;5.90;5.23;;;;;;;20.73;51.62;156692.63;4990167;28;20438;-82
2023/06/03 07:27:57;;;;;;;6.40;5.53;;;;;;;21.03;50.02;156770.88;4975975;28;20519;-82
2023/06/03 07:30:25;;;;;;;9.37;5.90;;;;;;;20.89;50.56;156734.38;4991047;28;20455;-82
2023/06/03 07:32:56;;;;;;;9.20;6.43;;;;;;;21.04;50.64;156774.81;5007523;28;20449;-82
2023/06/03 07:35:22;;;;;;;7.50;5.93;;;;;;;21.43;49.75;156875.34;4991708;28;20544;-82
2023/06/03 07:37:49;;;;;;;7.00;5.90;;;;;;;21.18;50.37;156810.09;5005819;28;20516;-82
2023/06/03 07:40:16;;;;;;;9.47;5.70;;;;;;;21.03;50.30;156770.88;4973754;28;20556;-82
2023/06/03 07:42:44;;;;;;;9.83;4.90;;;;;;;21.20;50.58;156815.31;5005377;28;20449;-82
2023/06/03 07:45:14;;;;;;;6.17;5.57;;;;;;;21.64;50.80;156928.84;4989559;28;20960;-82
2023/06/03 07:47:42;;;;;;;8.10;5.80;;;;;;;22.11;49.08;157051.63;4994613;28;20544;-82
2023/06/03 07:50:21;;;;;;;7.07;6.10;;;;;;;22.36;47.12;157115.63;4992785;28;20453;-82
2023/06/03 07:52:48;;;;;;;6.57;5.97;;;;;;;22.47;47.30;157144.38;5008788;28;20433;-82
2023/06/03 07:55:15;;;;;;;7.20;6.00;;;;;;;22.45;46.35;157139.16;5008942;28;20449;-82
2023/06/03 07:57:46;;;;;;;6.87;6.20;;;;;;;22.09;47.82;157045.09;5008483;28;20991;-82
2023/06/03 08:00:15;;;;;;;7.40;5.80;;;;;;;21.96;48.32;157011.16;5009072;28;20493;-82
2023/06/03 08:02:43;;;;;;;6.50;5.90;;;;;;;21.39;49.48;156864.91;5012270;28;20440;-82
2023/06/03 08:05:10;;;;;;;6.60;5.87;;;;;;;21.80;49.24;156971.94;5012124;28;20894;-82
2023/06/03 08:07:37;;;;;;;7.10;5.77;;;;;;;22.15;47.98;157062.09;5025153;28;20559;-82
2023/06/03 08:10:04;;;;;;;6.50;5.90;;;;;;;21.88;47.72;156991.56;5009804;28;20538;-82
2023/06/03 08:12:34;;;;;;;8.30;5.57;;;;;;;21.78;49.65;156965.41;5025263;28;20468;-82
2023/06/03 08:15:01;;;;;;;6.50;5.87;;;;;;;22.01;49.49;157024.22;4992994;28;20445;-82
2023/06/03 08:17:38;;;;;;;9.17;5.90;;;;;;;22.39;47.68;157123.47;5009240;28;20477;-83
2023/06/03 08:20:09;;;;;;;10.90;6.20;;;;;;;22.18;48.69;157069.94;5025847;28;20462;-82
2023/06/03 08:22:41;;;;;;;7.97;6.40;;;;;;;22.15;47.45;157062.09;5008338;28;20519;-82
2023/06/03 08:25:08;;;;;;;7.40;6.10;;;;;;;21.77;48.63;156964.09;5010672;28;20428;-82
2023/06/03 08:27:35;;;;;;;8.83;6.33;;;;;;;21.61;49.07;156921.00;5024801;28;20484;-82
2023/06/03 08:30:03;;;;;;;11.40;6.60;;;;;;;21.85;49.06;156985.00;5008630;28;20441;-82
2023/06/03 08:32:30;;;;;;;7.70;6.13;;;;;;;22.38;48.86;157122.16;5024992;28;20468;-82
2023/06/03 08:34:56;;;;;;;8.50;7.60;;;;;;;22.77;47.61;157222.78;5009362;28;20515;-83
2023/06/03 08:37:24;;;;;;;8.60;6.40;;;;;;;22.85;47.12;157243.69;4990474;28;20453;-83
2023/06/03 08:39:50;;;;;;;6.87;6.20;;;;;;;22.79;46.83;157228.06;5003603;28;20846;-83
2023/06/03 08:42:21;;;;;;;6.90;5.20;;;;;;;22.39;48.01;157124.81;4991032;28;20503;-83
2023/06/03 08:44:53;;;;;;;8.20;6.37;;;;;;;22.20;48.32;157073.84;5024564;28;20441;-83
2023/06/03 08:47:27;;;;;;;9.83;6.23;;;;;;;22.06;48.79;157037.25;4991266;28;20457;-83
2023/06/03 08:49:58;;;;;;;8.33;6.50;;;;;;;22.15;48.42;157060.78;5007831;28;21035;-82
2023/06/03 08:52:27;;;;;;;8.27;6.23;;;;;;;22.26;49.31;157089.53;5024394;28;20726;-83
2023/06/03 08:54:56;;;;;;;9.23;5.90;;;;;;;22.65;48.24;157191.47;5007907;28;20996;-83
2023/06/03 08:57:23;;;;;;;7.33;6.17;;;;;;;22.85;47.33;157242.38;4990272;28;20457;-83
2023/06/03 08:59:52;;;;;;;7.57;6.73;;;;;;;22.89;47.61;157252.84;5024155;28;20580;-83
2023/06/03 09:02:19;;;;;;;7.93;6.90;;;;;;;22.61;47.83;157180.94;5024738;28;20441;-83
2023/06/03 09:04:48;;;;;;;7.60;6.90;;;;;;;22.45;47.95;157140.44;5010716;28;20853;-83
2023/06/03 09:07:15;;;;;;;6.60;5.90;;;;;;;22.57;48.61;157170.50;5007533;28;20479;-83
2023/06/03 09:09:44;;;;;;;7.03;6.43;;;;;;;23.07;47.20;157299.88;5023599;28;20874;-83
2023/06/03 09:12:11;;;;;;;8.37;6.47;;;;;;;22.92;47.55;157262.03;5007096;28;20997;-83
2023/06/03 09:14:39;;;;;;;7.33;6.70;;;;;;;22.79;47.85;157228.06;4989323;28;20444;-83
2023/06/03 09:17:06;;;;;;;6.83;6.23;;;;;;;22.69;47.83;157201.88;4971495;28;20445;-83
2023/06/03 09:19:32;;;;;;;6.63;5.93;;;;;;;22.69;48.43;157201.88;5004081;28;20500;-83
2023/06/03 09:21:59;;;;;;;6.97;6.37;;;;;;;22.35;48.52;157113.00;5004132;28;20445;-83
2023/06/03 09:24:27;;;;;;;6.93;6.20;;;;;;;21.69;50.05;156943.22;5003890;28;20871;-82
2023/06/03 09:26:55;;;;;;;9.13;6.83;;;;;;;21.87;49.67;156988.94;5004072;28;20442;-82
2023/06/03 09:29:21;;;;;;;6.97;6.27;;;;;;;21.84;49.46;156981.09;5000424;28;20958;-83
2023/06/03 09:31:49;;;;;;;8.00;6.40;;;;;;;21.88;50.69;156990.25;5007256;28;20441;-82
2023/06/03 09:34:15;;;;;;;8.30;7.50;;;;;;;21.75;50.25;156957.59;5007045;28;20448;-83
2023/06/03 09:36:46;;;;;;;8.20;7.07;;;;;;;21.81;49.81;156974.56;4990670;28;20456;-83
2023/06/03 09:39:16;;;;;;;8.87;6.80;;;;;;;22.11;50.03;157051.63;5006839;28;20451;-82
2023/06/03 09:41:43;;;;;;;8.80;7.07;;;;;;;22.17;49.30;157066.00;5007179;28;20501;-82
2023/06/03 09:44:11;;;;;;;8.07;7.23;;;;;;;22.21;50.10;157077.75;5023545;28;20859;-82
2023/06/03 09:46:38;;;;;;;7.47;6.67;;;;;;;22.56;49.54;157166.59;5022542;28;20461;-82
2023/06/03 09:49:09;;;;;;;11.13;7.10;;;;;;;22.69;48.76;157201.88;5006811;28;20995;-82
2023/06/03 09:51:44;;;;;;;7.70;6.90;;;;;;;22.57;49.47;157170.50;5006835;28;20555;-82
2023/06/03 09:54:11;;;;;;;9.10;7.40;;;;;;;22.37;50.27;157119.53;5009832;28;20437;-82
2023/06/03 09:56:38;;;;;;;8.20;7.40;;;;;;;22.58;50.16;157173.13;5010934;28;20456;-83
2023/06/03 09:59:17;;;;;;;9.33;6.50;;;;;;;22.75;49.02;157216.25;5011246;28;20433;-83
2023/06/03 10:01:45;;;;;;;7.83;7.13;;;;;;;22.71;49.47;157205.84;5047228;28;21036;-83
2023/06/03 10:04:12;;;;;;;10.00;6.67;;;;;;;23.00;48.48;157282.94;4989757;28;20813;-83
2023/06/03 10:06:39;;;;;;;9.60;6.80;;;;;;;23.03;49.37;157289.47;4990945;28;20449;-83
2023/06/03 10:09:18;;;;;;;8.07;7.30;;;;;;;22.94;50.06;157265.91;5008306;28;20464;-82
2023/06/03 10:11:49;;;;;;;7.93;6.97;;;;;;;22.66;49.72;157192.78;5012187;28;20476;-82
2023/06/03 10:14:21;;;;;;;7.70;6.80;;;;;;;22.44;49.60;157137.84;5010711;28;20436;-83
2023/06/03 10:17:03;;;;;;;7.33;6.60;;;;;;;22.43;50.35;157135.22;5026744;28;20488;-83
2023/06/03 10:19:33;;;;;;;10.37;7.10;;;;;;;22.57;50.01;157170.50;5010816;28;20855;-83
2023/06/03 10:22:00;;;;;;;8.57;7.40;;;;;;;22.67;49.07;157196.66;5009658;28;20445;-83
2023/06/03 10:24:27;;;;;;;13.40;7.70;;;;;;;22.30;50.17;157099.94;5010596;28;20879;-83
2023/06/03 10:26:54;;;;;;;10.10;7.03;;;;;;;22.48;50.60;157146.97;5012094;28;20448;-83
2023/06/03 10:29:22;;;;;;;8.13;7.20;;;;;;;22.70;50.11;157203.19;5010197;28;20526;-83
2023/06/03 10:31:49;;;;;;;7.77;6.40;;;;;;;22.83;49.04;157237.16;5010222;28;20448;-83
2023/06/03 10:34:16;;;;;;;8.07;7.27;;;;;;;22.76;49.13;157220.22;5010341;28;20515;-83
2023/06/03 10:36:43;;;;;;;10.40;6.83;;;;;;;22.93;49.88;157264.59;5007966;28;20511;-83
2023/06/03 10:39:11;;;;;;;11.73;7.53;;;;;;;23.19;48.80;157329.97;5006573;28;20440;-83
2023/06/03 10:41:39;;;;;;;9.13;6.93;;;;;;;22.98;48.56;157277.66;5010193;28;20885;-83
2023/06/03 10:44:05;;;;;;;7.47;6.80;;;;;;;22.90;48.73;157255.50;4993677;28;20437;-83
2023/06/03 10:46:34;;;;;;;9.03;7.77;;;;;;;22.77;49.18;157221.53;5026416;28;20611;-83
2023/06/03 10:49:02;;;;;;;7.53;6.87;;;;;;;22.59;49.11;157174.41;5026395;28;20480;-82
2023/06/03 10:51:42;;;;;;;7.13;6.50;;;;;;;22.30;49.83;157099.94;5009943;28;21025;-82
2023/06/03 10:54:20;;;;;;;7.70;6.90;;;;;;;22.28;51.19;157094.75;5011341;28;20788;-82
2023/06/03 10:56:50;;;;;;;8.40;6.70;;;;;;;22.31;51.27;157103.91;5011000;28;20448;-82
2023/06/03 10:59:19;;;;;;;8.50;7.70;;;;;;;22.50;49.81;157152.22;5011497;28;20476;-82
2023/06/03 11:02:00;;;;;;;10.30;7.03;;;;;;;22.70;50.30;157204.50;5026175;28;21050;-82
2023/06/03 11:04:28;;;;;;;8.53;7.47;;;;;;;22.78;50.46;157224.09;5011189;28;20427;-82
2023/06/03 11:06:54;;;;;;;7.80;7.00;;;;;;;23.01;49.40;157285.50;5008374;28;21037;-82
2023/06/03 11:09:34;;;;;;;8.80;6.97;;;;;;;23.08;48.81;157301.22;5005820;28;20539;-82
2023/06/03 11:12:06;;;;;;;10.00;7.70;;;;;;;22.92;48.69;157262.03;5015940;28;20458;-82
2023/06/03 11:14:54;;;;;;;9.17;7.37;;;;;;;23.04;48.99;157292.03;4986828;28;20431;-82
2023/06/03 11:17:25;;;;;;;8.10;7.30;;;;;;;23.26;48.93;157348.25;4986455;28;20453;-82
2023/06/03 11:19:54;;;;;;;7.70;6.50;;;;;;;23.09;48.87;157303.84;4972059;28;20426;-83
2023/06/03 11:22:43;;;;;;;7.90;7.20;;;;;;;23.18;48.34;157328.66;4986581;28;20858;-83
2023/06/03 11:25:27;;;;;;;8.03;7.23;;;;;;;23.05;49.03;157294.69;4986675;28;20478;-83
2023/06/03 11:27:53;;;;;;;7.60;6.90;;;;;;;22.92;49.51;157260.69;4971912;28;20938;-83
2023/06/03 11:30:20;;;;;;;9.40;7.17;;;;;;;22.70;49.75;157204.50;4989003;28;20486;-82
2023/06/03 11:33:08;;;;;;;7.00;6.30;;;;;;;22.94;48.42;157267.25;4971751;28;20439;-83